CMA CGM Columba — 2DBC9 — position and weather

sailwx.info

Track history (hours):
 
Tides and Currents Weather Stations Pressure Air Temp Water Temp Dewpoint Dewpoint Depression Visibility Wind Speed Wind Dir Waves Ship Positions

CMA CGM Columba

Last reported at 2016-Jun-27 01:11 UTC. Time now 2016-Jun-29 03:50 UTC.
Position N 34°39' E 140°56'.

Length 363 m; draft 12.8 m.

Type: Ship (hazmat cat A). MMSI: 235077448.

Date/timePositionNaut miles runAvg speedWind from/ knotsBaromVisibWave heightAir tempDewpointWater temp
2016-Jun-27 01:11N 34°39' E 140°56'1520.7
2016-Jun-27 00:27N 34°31' E 140°40'1819.6
2016-Jun-26 23:32N 34°22' E 140°22'  
2016-Jun-24 15:16N 25°31' E 120°54'5920.4
2016-Jun-24 12:24N 24°59' E 119°59'4021.5
2016-Jun-24 10:34N 24°34' E 119°26'2020.3
2016-Jun-24 09:33N 24°20' E 119°10'2020.1
2016-Jun-24 08:33N 24°07' E 118°52'1919.7
2016-Jun-24 07:34N 23°55' E 118°36'2019.9
2016-Jun-24 06:32N 23°41' E 118°19'229 5.4
2016-Jun-22 12:14N 22°12' E 114°30'1516.3
2016-Jun-22 11:20N 22°07' E 114°15'1212.8
2016-Jun-22 10:22N 22°16' E 114°06'4 4.9
2016-Jun-22 09:33N 22°20' E 114°07'0 0.0
2016-Jun-22 01:21N 22°20' E 114°07'0 0.0
2016-Jun-21 23:21N 22°20' E 114°07'0 0.0
2016-Jun-21 22:33N 22°20' E 114°07'0 0.0
2016-Jun-21 21:33N 22°20' E 114°07'0 0.0
2016-Jun-21 20:33N 22°20' E 114°07'0 0.0
2016-Jun-21 19:27N 22°20' E 114°07'0 0.0
2016-Jun-21 18:18N 22°20' E 114°07'0 0.0
2016-Jun-21 17:24N 22°20' E 114°07'0 0.0
2016-Jun-21 15:32N 22°20' E 114°07'18 3.7
2016-Jun-21 10:33N 22°13' E 113°49'1514.0
2016-Jun-21 09:29N 22°27' E 113°45'1212.4
2016-Jun-21 08:33N 22°38' E 113°41'0 0.0
2016-Jun-20 13:14N 22°38' E 113°41'1110.0
2016-Jun-20 12:06N 22°28' E 113°45'713.2
2016-Jun-20 11:33N 22°21' E 113°48'33 8.4
2016-Jun-20 07:33N 22°08' E 114°21'25016.6
2016-Jun-19 16:29N 24°07' E 118°20'1415.6
2016-Jun-19 15:33N 24°19' E 118°11'1211.7
2016-Jun-19 14:33N 24°26' E 118°01'0 0.5
2016-Jun-19 13:33N 24°27' E 118°01'0 0.0
2016-Jun-19 12:33N 24°27' E 118°01'0 0.0
2016-Jun-19 10:33N 24°27' E 118°01'0 0.0
2016-Jun-19 09:27N 24°27' E 118°01'0 0.0
2016-Jun-19 08:33N 24°27' E 118°01'0 0.0
2016-Jun-19 07:30N 24°27' E 118°01'0 0.0
2016-Jun-19 06:33N 24°27' E 118°01'0 0.0
2016-Jun-19 05:33N 24°27' E 118°01'0 0.0
2016-Jun-19 03:15N 24°27' E 118°01'0 0.0
2016-Jun-19 02:33N 24°27' E 118°01'0 0.0
2016-Jun-19 01:33N 24°27' E 118°01'0 0.0
2016-Jun-19 00:27N 24°27' E 118°01'0 0.0
2016-Jun-18 23:21N 24°27' E 118°01'0 0.1
2016-Jun-18 22:21N 24°27' E 118°01'0 0.0
2016-Jun-18 21:33N 24°27' E 118°01'0 0.1
2016-Jun-18 20:33N 24°27' E 118°01'0 0.0
2016-Jun-18 19:27N 24°27' E 118°01'0 0.0
2016-Jun-18 18:33N 24°27' E 118°01'0 0.1
2016-Jun-18 17:33N 24°27' E 118°01'0 0.1
2016-Jun-18 16:33N 24°27' E 118°01'0 0.0
2016-Jun-18 15:33N 24°27' E 118°01'0 0.0
2016-Jun-18 14:33N 24°27' E 118°01'0 0.1
2016-Jun-18 13:33N 24°27' E 118°01'8 8.1
2016-Jun-18 12:33N 24°22' E 118°08'1211.7
2016-Jun-18 11:33N 24°13' E 118°17'1514.8
2016-Jun-18 10:31N 24°14' E 118°34'1617.0
2016-Jun-18 09:33N 24°20' E 118°51'1917.8
2016-Jun-18 08:31N 24°31' E 119°07'1717.8
2016-Jun-18 07:33N 24°42' E 119°22'2117.4
2016-Jun-18 06:21N 24°55' E 119°39'2413.2
2016-Jun-18 04:33N 25°18' E 119°35'1313.3
2016-Jun-18 03:34N 25°22' E 119°21'5 2.4
2016-Jun-18 01:31N 25°25' E 119°17'0 0.0
2016-Jun-18 00:31N 25°25' E 119°17'0 0.0
2016-Jun-17 23:31N 25°25' E 119°17'0 0.0
2016-Jun-17 22:31N 25°25' E 119°17'0 0.0
2016-Jun-17 21:31N 25°25' E 119°17'0 0.0
2016-Jun-17 20:31N 25°25' E 119°17'0 0.0
2016-Jun-17 15:25N 25°25' E 119°17'0 0.0
2016-Jun-17 14:31N 25°25' E 119°17'0 0.0
2016-Jun-17 13:25N 25°25' E 119°17'0 0.0
2016-Jun-17 12:07N 25°25' E 119°17'0 0.0
2016-Jun-17 11:31N 25°25' E 119°17'0 0.0
2016-Jun-17 10:31N 25°25' E 119°17'0 0.0
2016-Jun-17 09:19N 25°25' E 119°17'0 0.0
2016-Jun-17 08:19N 25°25' E 119°17'0 0.0
2016-Jun-17 07:31N 25°25' E 119°17'0 0.0
2016-Jun-17 06:31N 25°25' E 119°17'0 0.0
2016-Jun-17 04:31N 25°25' E 119°17'0 0.0
2016-Jun-17 03:31N 25°25' E 119°17'0 0.0
2016-Jun-17 01:31N 25°25' E 119°17'  
Track history (hours):
 
Tides and Currents Weather Stations Pressure Air Temp Water Temp Dewpoint Dewpoint Depression Visibility Wind Speed Wind Dir Waves Ship Positions

CMA CGM Columba

Last reported at 2016-Jun-27 01:11 UTC. Time now 2016-Jun-29 03:50 UTC.
Position N 34°39' E 140°56'.

Length 363 m; draft 12.8 m.

Type: Ship (hazmat cat A). MMSI: 235077448.

Date/timePositionNaut miles runAvg speedWind from/ knotsBaromVisibWave heightAir tempDewpointWater temp
2016-Jun-27 01:11N 34°39' E 140°56'1520.7
2016-Jun-27 00:27N 34°31' E 140°40'1819.6
2016-Jun-26 23:32N 34°22' E 140°22'  
2016-Jun-24 15:16N 25°31' E 120°54'5920.4
2016-Jun-24 12:24N 24°59' E 119°59'4021.5
2016-Jun-24 10:34N 24°34' E 119°26'2020.3
2016-Jun-24 09:33N 24°20' E 119°10'2020.1
2016-Jun-24 08:33N 24°07' E 118°52'1919.7
2016-Jun-24 07:34N 23°55' E 118°36'2019.9
2016-Jun-24 06:32N 23°41' E 118°19'229 5.4
2016-Jun-22 12:14N 22°12' E 114°30'1516.3
2016-Jun-22 11:20N 22°07' E 114°15'1212.8
2016-Jun-22 10:22N 22°16' E 114°06'4 4.9
2016-Jun-22 09:33N 22°20' E 114°07'0 0.0
2016-Jun-22 01:21N 22°20' E 114°07'0 0.0
2016-Jun-21 23:21N 22°20' E 114°07'0 0.0
2016-Jun-21 22:33N 22°20' E 114°07'0 0.0
2016-Jun-21 21:33N 22°20' E 114°07'0 0.0
2016-Jun-21 20:33N 22°20' E 114°07'0 0.0
2016-Jun-21 19:27N 22°20' E 114°07'0 0.0
2016-Jun-21 18:18N 22°20' E 114°07'0 0.0
2016-Jun-21 17:24N 22°20' E 114°07'0 0.0
2016-Jun-21 15:32N 22°20' E 114°07'18 3.7
2016-Jun-21 10:33N 22°13' E 113°49'1514.0
2016-Jun-21 09:29N 22°27' E 113°45'1212.4
2016-Jun-21 08:33N 22°38' E 113°41'0 0.0
2016-Jun-20 13:14N 22°38' E 113°41'1110.0
2016-Jun-20 12:06N 22°28' E 113°45'713.2
2016-Jun-20 11:33N 22°21' E 113°48'33 8.4
2016-Jun-20 07:33N 22°08' E 114°21'25016.6
2016-Jun-19 16:29N 24°07' E 118°20'1415.6
2016-Jun-19 15:33N 24°19' E 118°11'1211.7
2016-Jun-19 14:33N 24°26' E 118°01'0 0.5
2016-Jun-19 13:33N 24°27' E 118°01'0 0.0
2016-Jun-19 12:33N 24°27' E 118°01'0 0.0
2016-Jun-19 10:33N 24°27' E 118°01'0 0.0
2016-Jun-19 09:27N 24°27' E 118°01'0 0.0
2016-Jun-19 08:33N 24°27' E 118°01'0 0.0
2016-Jun-19 07:30N 24°27' E 118°01'0 0.0
2016-Jun-19 06:33N 24°27' E 118°01'0 0.0
2016-Jun-19 05:33N 24°27' E 118°01'0 0.0
2016-Jun-19 03:15N 24°27' E 118°01'0 0.0
2016-Jun-19 02:33N 24°27' E 118°01'0 0.0
2016-Jun-19 01:33N 24°27' E 118°01'0 0.0
2016-Jun-19 00:27N 24°27' E 118°01'0 0.0
2016-Jun-18 23:21N 24°27' E 118°01'0 0.1
2016-Jun-18 22:21N 24°27' E 118°01'0 0.0
2016-Jun-18 21:33N 24°27' E 118°01'0 0.1
2016-Jun-18 20:33N 24°27' E 118°01'0 0.0
2016-Jun-18 19:27N 24°27' E 118°01'0 0.0
2016-Jun-18 18:33N 24°27' E 118°01'0 0.1
2016-Jun-18 17:33N 24°27' E 118°01'0 0.1
2016-Jun-18 16:33N 24°27' E 118°01'0 0.0
2016-Jun-18 15:33N 24°27' E 118°01'0 0.0
2016-Jun-18 14:33N 24°27' E 118°01'0 0.1
2016-Jun-18 13:33N 24°27' E 118°01'8 8.1
2016-Jun-18 12:33N 24°22' E 118°08'1211.7
2016-Jun-18 11:33N 24°13' E 118°17'1514.8
2016-Jun-18 10:31N 24°14' E 118°34'1617.0
2016-Jun-18 09:33N 24°20' E 118°51'1917.8
2016-Jun-18 08:31N 24°31' E 119°07'1717.8
2016-Jun-18 07:33N 24°42' E 119°22'2117.4
2016-Jun-18 06:21N 24°55' E 119°39'2413.2
2016-Jun-18 04:33N 25°18' E 119°35'1313.3
2016-Jun-18 03:34N 25°22' E 119°21'5 2.4
2016-Jun-18 01:31N 25°25' E 119°17'0 0.0
2016-Jun-18 00:31N 25°25' E 119°17'0 0.0
2016-Jun-17 23:31N 25°25' E 119°17'0 0.0
2016-Jun-17 22:31N 25°25' E 119°17'0 0.0
2016-Jun-17 21:31N 25°25' E 119°17'0 0.0
2016-Jun-17 20:31N 25°25' E 119°17'0 0.0
2016-Jun-17 15:25N 25°25' E 119°17'0 0.0
2016-Jun-17 14:31N 25°25' E 119°17'0 0.0
2016-Jun-17 13:25N 25°25' E 119°17'0 0.0
2016-Jun-17 12:07N 25°25' E 119°17'0 0.0
2016-Jun-17 11:31N 25°25' E 119°17'0 0.0
2016-Jun-17 10:31N 25°25' E 119°17'0 0.0
2016-Jun-17 09:19N 25°25' E 119°17'0 0.0
2016-Jun-17 08:19N 25°25' E 119°17'0 0.0
2016-Jun-17 07:31N 25°25' E 119°17'0 0.0
2016-Jun-17 06:31N 25°25' E 119°17'0 0.0
2016-Jun-17 04:31N 25°25' E 119°17'0 0.0
2016-Jun-17 03:31N 25°25' E 119°17'0 0.0
2016-Jun-17 01:31N 25°25' E 119°17'  

Dump ship's entire track history